Time;durP1;ratioP1;P1;durP2;ratioP2;P2;SDS_P1;SDS_P2;PMS_P1;PMS_P2;Temp;Humidity;BMP_temperature;BMP_pressure;BME280_temperature;BME280_humidity;BME280_pressure;Samples;Min_cycle;Max_cycle;Signal;HPM_P1;HPM_P2
2022/06/11 00:01:20;;;;;;;;;;;19.70;99.90;;;;;;4926181;29;20399;-57
2022/06/11 00:03:47;;;;;;;;;;;19.80;99.90;;;;;;4927158;29;20005;-57
2022/06/11 00:06:13;;;;;;;;;;;19.70;99.90;;;;;;4927224;29;19997;-58
2022/06/11 00:08:38;;;;;;;;;;;19.70;99.90;;;;;;4929925;29;20001;-58
2022/06/11 00:11:04;;;;;;;;;;;19.70;99.90;;;;;;4926894;29;19910;-58
2022/06/11 00:13:30;;;;;;;;;;;19.70;99.90;;;;;;4926885;29;19943;-58
2022/06/11 00:15:56;;;;;;;;;;;19.70;99.90;;;;;;4934551;29;20330;-57
2022/06/11 00:18:22;;;;;;;;;;;19.70;99.90;;;;;;4924697;29;19993;-57
2022/06/11 00:20:48;;;;;;;;;;;19.70;99.90;;;;;;4923557;29;19926;-57
2022/06/11 00:23:14;;;;;;;;;;;19.70;99.90;;;;;;4926104;29;19915;-58
2022/06/11 00:25:40;;;;;;;;;;;19.60;99.90;;;;;;4926368;29;19961;-57
2022/06/11 00:28:06;;;;;;;;;;;19.60;99.90;;;;;;4926553;29;19914;-57
2022/06/11 00:30:32;;;;;;;;;;;19.70;99.90;;;;;;4928868;29;19911;-57
2022/06/11 00:32:58;;;;;;;;;;;19.70;99.90;;;;;;4923832;29;20430;-57
2022/06/11 00:35:24;;;;;;;;;;;19.60;99.90;;;;;;4926861;29;19914;-57
2022/06/11 00:37:50;;;;;;;;;;;19.60;99.90;;;;;;4927947;29;19906;-58
2022/06/11 00:40:17;;;;;;;;;;;19.60;99.90;;;;;;4929687;29;20382;-58
2022/06/11 00:42:43;;;;;;;;;;;19.60;99.90;;;;;;4928900;29;19913;-57
2022/06/11 00:45:21;;;;;;;;;;;19.60;99.90;;;;;;4926970;29;19915;-58
2022/06/11 00:47:51;;;;;;;;;;;19.50;99.90;;;;;;4925899;29;19917;-58
2022/06/11 00:50:19;;;;;;;;;;;19.50;99.90;;;;;;4928530;29;20430;-57
2022/06/11 00:52:45;;;;;;;;;;;19.40;99.90;;;;;;4923800;29;20264;-58
2022/06/11 00:55:14;;;;;;;;;;;19.40;99.90;;;;;;4927351;29;19934;-57
2022/06/11 00:57:42;;;;;;;;;;;19.40;99.90;;;;;;4927114;29;20001;-57
2022/06/11 01:00:17;;;;;;;;;;;19.40;99.90;;;;;;4924945;29;19915;-57
2022/06/11 01:02:44;;;;;;;;;;;19.30;99.90;;;;;;4923798;29;20508;-57
2022/06/11 01:05:13;;;;;;;;;;;19.20;99.90;;;;;;4926091;29;20364;-57
2022/06/11 01:07:38;;;;;;;;;;;19.30;99.90;;;;;;4922414;29;19966;-57
2022/06/11 01:10:17;;;;;;;;;;;19.30;99.90;;;;;;4927151;29;19975;-56
2022/06/11 01:12:42;;;;;;;;;;;19.20;99.90;;;;;;4923209;29;19918;-57
2022/06/11 01:15:12;;;;;;;;;;;19.20;99.90;;;;;;4923930;29;20348;-58
2022/06/11 01:17:41;;;;;;;;;;;19.20;99.90;;;;;;4924047;29;19915;-57
2022/06/11 01:20:06;;;;;;;;;;;19.20;99.90;;;;;;4925630;29;19914;-58
2022/06/11 01:22:46;;;;;;;;;;;19.10;99.90;;;;;;4926848;29;19921;-57
2022/06/11 01:25:32;;;;;;;;;;;19.20;99.90;;;;;;4921985;29;20334;-58
2022/06/11 01:28:16;;;;;;;;;;;19.20;99.90;;;;;;4924164;29;19922;-57
2022/06/11 01:30:56;;;;;;;;;;;19.20;99.90;;;;;;4927654;29;20379;-57
2022/06/11 01:33:35;;;;;;;;;;;19.20;99.90;;;;;;4922272;29;19965;-58
2022/06/11 01:36:20;;;;;;;;;;;19.20;99.90;;;;;;4926827;29;19917;-57
2022/06/11 01:38:50;;;;;;;;;;;19.20;99.90;;;;;;4925203;29;19915;-58
2022/06/11 01:41:26;;;;;;;;;;;19.20;99.90;;;;;;4922005;29;20346;-58
2022/06/11 01:43:54;;;;;;;;;;;19.20;99.90;;;;;;4921475;29;20361;-58
2022/06/11 01:46:23;;;;;;;;;;;19.20;99.90;;;;;;4926099;29;19957;-57
2022/06/11 01:49:03;;;;;;;;;;;19.10;99.90;;;;;;4923577;29;20009;-58
2022/06/11 01:51:34;;;;;;;;;;;19.10;99.90;;;;;;4917471;29;19923;-58
2022/06/11 01:54:03;;;;;;;;;;;19.20;99.90;;;;;;4923812;29;19919;-58
2022/06/11 01:56:31;;;;;;;;;;;19.10;99.90;;;;;;4926862;29;19921;-58
2022/06/11 01:59:25;;;;;;;;;;;19.10;99.90;;;;;;4923241;29;19966;-57
2022/06/11 02:02:09;;;;;;;;;;;19.00;99.90;;;;;;4926452;29;19910;-58
2022/06/11 02:04:51;;;;;;;;;;;19.10;99.90;;;;;;4925130;29;19987;-57
2022/06/11 02:07:38;;;;;;;;;;;19.00;99.90;;;;;;4922095;29;20006;-57
2022/06/11 02:10:13;;;;;;;;;;;19.00;99.90;;;;;;4899908;29;19915;-58
2022/06/11 02:12:42;;;;;;;;;;;18.90;99.90;;;;;;4917533;29;20410;-58
2022/06/11 02:15:14;;;;;;;;;;;18.90;99.90;;;;;;4930470;29;20423;-58
2022/06/11 02:17:41;;;;;;;;;;;18.80;99.90;;;;;;4926240;29;20283;-58
2022/06/11 02:20:18;;;;;;;;;;;18.80;99.90;;;;;;4911059;29;19911;-58
2022/06/11 02:22:46;;;;;;;;;;;18.80;99.90;;;;;;4920781;29;19943;-57
2022/06/11 02:25:34;;;;;;;;;;;18.80;99.90;;;;;;4926103;29;19915;-57
2022/06/11 02:28:02;;;;;;;;;;;18.80;99.90;;;;;;4917499;29;19910;-57
2022/06/11 02:30:29;;;;;;;;;;;18.70;99.90;;;;;;4908978;29;19911;-58
2022/06/11 02:32:54;;;;;;;;;;;18.60;99.90;;;;;;4923102;29;19912;-58
2022/06/11 02:35:29;;;;;;;;;;;18.50;99.90;;;;;;4923900;29;20462;-57
2022/06/11 02:37:55;;;;;;;;;;;18.60;99.90;;;;;;4923331;29;19958;-58
2022/06/11 02:40:25;;;;;;;;;;;18.40;99.90;;;;;;4926436;29;20430;-58
2022/06/11 02:42:50;;;;;;;;;;;18.40;99.90;;;;;;4925566;29;20611;-58
2022/06/11 02:45:17;;;;;;;;;;;18.50;99.90;;;;;;4925077;29;19918;-58
2022/06/11 02:47:44;;;;;;;;;;;18.50;99.90;;;;;;4922590;29;19911;-58
2022/06/11 02:50:15;;;;;;;;;;;18.40;99.90;;;;;;4922662;29;19986;-58
2022/06/11 02:52:41;;;;;;;;;;;18.40;99.90;;;;;;4921600;29;19927;-57
2022/06/11 02:55:07;;;;;;;;;;;18.40;99.90;;;;;;4921382;29;20707;-58
2022/06/11 02:57:33;;;;;;;;;;;18.40;99.90;;;;;;4925519;29;19922;-58
2022/06/11 02:59:59;;;;;;;;;;;18.50;99.90;;;;;;4923707;29;19933;-58
2022/06/11 03:02:25;;;;;;;;;;;18.50;99.90;;;;;;4921297;29;20287;-57
2022/06/11 03:04:51;;;;;;;;;;;18.50;99.90;;;;;;4924170;29;19914;-57
2022/06/11 03:07:17;;;;;;;;;;;18.50;99.90;;;;;;4921431;29;19911;-57
2022/06/11 03:09:43;;;;;;;;;;;18.50;99.90;;;;;;4913441;29;20298;-58
2022/06/11 03:12:09;;;;;;;;;;;18.50;99.90;;;;;;4923320;29;19930;-57
2022/06/11 03:14:35;;;;;;;;;;;18.50;99.90;;;;;;4925354;29;19911;-57
2022/06/11 03:17:00;;;;;;;;;;;18.40;99.90;;;;;;4927507;29;19934;-58
2022/06/11 03:19:26;;;;;;;;;;;18.40;99.90;;;;;;4921459;29;19917;-58
2022/06/11 03:21:54;;;;;;;;;;;18.40;99.90;;;;;;4923182;29;19946;-58
2022/06/11 03:24:20;;;;;;;;;;;18.40;99.90;;;;;;4921721;29;19919;-57
2022/06/11 03:26:45;;;;;;;;;;;18.40;99.90;;;;;;4925464;29;19997;-57
2022/06/11 03:29:11;;;;;;;;;;;18.40;99.90;;;;;;4921426;29;19993;-57
2022/06/11 03:31:37;;;;;;;;;;;18.30;99.90;;;;;;4923813;29;20389;-58
2022/06/11 03:34:03;;;;;;;;;;;18.20;99.90;;;;;;4924827;29;19911;-57
2022/06/11 03:36:28;;;;;;;;;;;18.20;99.90;;;;;;4921648;29;19922;-57
2022/06/11 03:38:54;;;;;;;;;;;18.20;99.90;;;;;;4924162;29;19910;-57
2022/06/11 03:41:21;;;;;;;;;;;18.20;99.90;;;;;;4919680;29;19911;-57
2022/06/11 03:43:48;;;;;;;;;;;18.20;99.90;;;;;;4918968;29;19982;-57
2022/06/11 03:46:14;;;;;;;;;;;18.10;99.90;;;;;;4922668;29;19915;-57
2022/06/11 03:48:39;;;;;;;;;;;18.00;99.90;;;;;;4922776;29;20522;-57
2022/06/11 03:51:06;;;;;;;;;;;17.90;99.90;;;;;;4922788;29;19922;-57
2022/06/11 03:53:32;;;;;;;;;;;17.80;99.90;;;;;;4922022;29;20406;-57
2022/06/11 03:55:58;;;;;;;;;;;17.80;99.90;;;;;;4923177;29;19918;-58
2022/06/11 03:58:24;;;;;;;;;;;17.60;99.90;;;;;;4924941;29;19994;-58
2022/06/11 04:03:34;;;;;;;;;;;17.40;99.90;;;;;;4925948;29;19922;-57
2022/06/11 04:06:00;;;;;;;;;;;17.50;99.90;;;;;;4923798;29;20568;-58
2022/06/11 04:08:26;;;;;;;;;;;17.50;99.90;;;;;;4923010;29;19918;-57
2022/06/11 04:10:54;;;;;;;;;;;17.30;99.90;;;;;;4922170;29;20427;-58
2022/06/11 04:13:20;;;;;;;;;;;17.20;99.90;;;;;;4921905;29;19920;-57
2022/06/11 04:15:46;;;;;;;;;;;17.20;99.90;;;;;;4922427;29;19933;-58
2022/06/11 04:18:41;;;;;;;;;;;17.00;99.90;;;;;;4921530;29;19911;-58
2022/06/11 04:21:09;;;;;;;;;;;17.00;99.90;;;;;;4902058;29;20009;-57
2022/06/11 04:23:35;;;;;;;;;;;16.90;99.90;;;;;;4911181;29;20376;-57
2022/06/11 04:26:05;;;;;;;;;;;16.80;99.90;;;;;;4921353;29;20590;-58
2022/06/11 04:28:31;;;;;;;;;;;17.00;99.90;;;;;;4922980;29;20025;-58
2022/06/11 04:30:57;;;;;;;;;;;17.00;99.90;;;;;;4921180;29;20001;-58
2022/06/11 04:33:22;;;;;;;;;;;17.00;99.90;;;;;;4922568;29;19910;-57
2022/06/11 04:35:48;;;;;;;;;;;17.10;99.90;;;;;;4922713;29;19915;-57
2022/06/11 04:38:14;;;;;;;;;;;17.10;99.90;;;;;;4920593;29;19911;-57
2022/06/11 04:40:39;;;;;;;;;;;17.20;99.90;;;;;;4923361;29;20005;-57
2022/06/11 04:43:05;;;;;;;;;;;17.30;99.90;;;;;;4919895;29;19906;-57
2022/06/11 04:45:30;;;;;;;;;;;17.40;99.90;;;;;;4919603;29;19958;-58
2022/06/11 04:47:56;;;;;;;;;;;17.50;99.90;;;;;;4926740;29;19910;-58
2022/06/11 04:50:22;;;;;;;;;;;17.50;99.90;;;;;;4923650;29;19922;-58
2022/06/11 04:52:48;;;;;;;;;;;17.60;99.90;;;;;;4927361;29;20403;-57
2022/06/11 04:55:14;;;;;;;;;;;17.70;99.90;;;;;;4924001;29;20002;-58
2022/06/11 04:57:41;;;;;;;;;;;17.70;99.90;;;;;;4927216;29;19914;-57
2022/06/11 05:00:08;;;;;;;;;;;17.80;99.90;;;;;;4926529;29;20548;-57
2022/06/11 05:02:33;;;;;;;;;;;17.90;99.90;;;;;;4924529;29;19911;-57
2022/06/11 05:04:59;;;;;;;;;;;18.00;99.90;;;;;;4927373;29;19914;-57
2022/06/11 05:07:24;;;;;;;;;;;18.00;99.90;;;;;;4923993;29;19922;-57
2022/06/11 05:09:50;;;;;;;;;;;18.00;99.90;;;;;;4927002;29;19922;-57
2022/06/11 05:12:16;;;;;;;;;;;18.10;99.90;;;;;;4923750;29;19911;-57
2022/06/11 05:14:41;;;;;;;;;;;18.10;99.90;;;;;;4928433;29;20393;-57
2022/06/11 05:17:07;;;;;;;;;;;18.10;99.90;;;;;;4930173;29;20629;-57
2022/06/11 05:19:33;;;;;;;;;;;18.10;99.90;;;;;;4923647;29;19921;-57
2022/06/11 05:21:58;;;;;;;;;;;18.30;99.90;;;;;;4924535;29;19922;-58
2022/06/11 05:24:24;;;;;;;;;;;18.30;99.90;;;;;;4925937;29;19919;-57
2022/06/11 05:26:55;;;;;;;;;;;18.30;99.90;;;;;;4929650;29;19911;-58
2022/06/11 05:29:29;;;;;;;;;;;18.40;99.90;;;;;;4923682;29;19910;-57
2022/06/11 05:31:55;;;;;;;;;;;18.40;99.90;;;;;;4925388;29;19911;-57
2022/06/11 05:34:21;;;;;;;;;;;18.50;99.90;;;;;;4907284;29;19921;-58
2022/06/11 05:36:46;;;;;;;;;;;18.50;99.90;;;;;;4924229;29;19918;-58
2022/06/11 05:39:12;;;;;;;;;;;18.60;99.90;;;;;;4923014;29;19970;-57
2022/06/11 05:41:38;;;;;;;;;;;18.60;99.90;;;;;;4923740;29;20379;-57
2022/06/11 05:44:04;;;;;;;;;;;18.70;99.90;;;;;;4925734;29;19915;-57
2022/06/11 05:46:32;;;;;;;;;;;18.70;99.90;;;;;;4924845;29;20569;-57
2022/06/11 05:49:00;;;;;;;;;;;18.80;99.90;;;;;;4924014;29;19911;-57
2022/06/11 05:51:27;;;;;;;;;;;18.90;99.90;;;;;;4921195;29;19922;-58
2022/06/11 05:53:54;;;;;;;;;;;19.00;99.90;;;;;;4924387;29;19921;-58
2022/06/11 05:56:20;;;;;;;;;;;19.00;99.90;;;;;;4924384;29;19911;-58
2022/06/11 05:58:51;;;;;;;;;;;19.20;99.90;;;;;;4924460;29;19910;-58
2022/06/11 06:01:18;;;;;;;;;;;19.30;99.90;;;;;;4924012;29;19911;-57
2022/06/11 06:03:43;;;;;;;;;;;19.60;99.90;;;;;;4928456;29;20307;-58
2022/06/11 06:06:09;;;;;;;;;;;20.00;99.90;;;;;;4925500;29;20005;-57
2022/06/11 06:08:34;;;;;;;;;;;20.30;99.90;;;;;;4927066;29;19910;-58
2022/06/11 06:11:00;;;;;;;;;;;20.50;99.90;;;;;;4925458;29;19918;-57
2022/06/11 06:16:09;;;;;;;;;;;20.80;99.90;;;;;;4926687;29;19953;-57
2022/06/11 06:18:35;;;;;;;;;;;21.10;99.90;;;;;;4924114;29;20669;-58
2022/06/11 06:21:00;;;;;;;;;;;21.10;99.90;;;;;;4921028;29;19923;-58
2022/06/11 06:23:26;;;;;;;;;;;21.00;99.90;;;;;;4920894;29;20382;-57
2022/06/11 06:25:51;;;;;;;;;;;20.60;99.90;;;;;;4923095;29;19915;-57
2022/06/11 06:28:17;;;;;;;;;;;20.50;99.90;;;;;;4925643;29;19910;-58
2022/06/11 06:30:42;;;;;;;;;;;20.50;99.90;;;;;;4922418;29;19911;-57
2022/06/11 06:33:08;;;;;;;;;;;20.30;99.90;;;;;;4924467;29;19915;-58
2022/06/11 06:35:33;;;;;;;;;;;20.30;99.90;;;;;;4925310;29;19953;-58
2022/06/11 06:37:59;;;;;;;;;;;20.40;99.90;;;;;;4922808;29;20327;-57
2022/06/11 06:40:25;;;;;;;;;;;20.30;99.90;;;;;;4924504;29;19911;-58
2022/06/11 06:42:51;;;;;;;;;;;20.40;99.90;;;;;;4923051;29;19954;-57
2022/06/11 06:45:16;;;;;;;;;;;20.10;99.90;;;;;;4927865;29;20468;-57
2022/06/11 06:47:42;;;;;;;;;;;20.30;99.90;;;;;;4925885;29;19918;-57
2022/06/11 06:50:08;;;;;;;;;;;20.40;99.90;;;;;;4924325;29;19919;-58
2022/06/11 06:52:33;;;;;;;;;;;20.40;99.90;;;;;;4924245;29;19949;-57
2022/06/11 06:54:59;;;;;;;;;;;20.50;99.90;;;;;;4923863;29;19937;-57
2022/06/11 06:57:24;;;;;;;;;;;20.70;99.90;;;;;;4924924;29;20292;-58
2022/06/11 06:59:49;;;;;;;;;;;20.80;99.90;;;;;;4922978;29;20430;-57
2022/06/11 07:02:15;;;;;;;;;;;20.70;99.90;;;;;;4919019;29;19910;-58
2022/06/11 07:04:40;;;;;;;;;;;20.70;99.90;;;;;;4924085;29;20781;-57
2022/06/11 07:07:06;;;;;;;;;;;20.70;99.90;;;;;;4924157;29;20014;-57
2022/06/11 07:09:32;;;;;;;;;;;20.50;99.90;;;;;;4923825;29;19911;-57
2022/06/11 07:11:58;;;;;;;;;;;20.60;99.90;;;;;;4925806;29;20319;-57
2022/06/11 07:14:23;;;;;;;;;;;20.70;99.90;;;;;;4921702;29;19914;-57
2022/06/11 07:16:51;;;;;;;;;;;20.80;99.90;;;;;;4928182;29;19907;-57
2022/06/11 07:19:20;;;;;;;;;;;21.20;99.90;;;;;;4921767;29;19915;-58
2022/06/11 07:21:48;;;;;;;;;;;21.30;99.90;;;;;;4923462;29;19999;-57
2022/06/11 07:24:16;;;;;;;;;;;21.10;99.90;;;;;;4922204;29;20359;-57
2022/06/11 07:26:46;;;;;;;;;;;21.30;99.90;;;;;;4927049;29;19910;-57
2022/06/11 07:29:32;;;;;;;;;;;21.40;99.90;;;;;;4924552;29;20290;-57
2022/06/11 07:32:01;;;;;;;;;;;21.60;99.90;;;;;;4923574;29;19911;-57
2022/06/11 07:34:27;;;;;;;;;;;21.30;99.90;;;;;;4918851;29;20408;-58
2022/06/11 07:36:53;;;;;;;;;;;21.10;99.90;;;;;;4924201;29;19918;-57
2022/06/11 07:39:19;;;;;;;;;;;21.10;99.90;;;;;;4923822;29;20647;-57
2022/06/11 07:41:44;;;;;;;;;;;20.80;99.90;;;;;;4922978;29;19915;-57
2022/06/11 07:44:10;;;;;;;;;;;20.80;99.90;;;;;;4922812;29;19989;-57
2022/06/11 07:46:35;;;;;;;;;;;21.00;99.90;;;;;;4922890;29;19961;-58
2022/06/11 07:49:01;;;;;;;;;;;21.10;99.90;;;;;;4924069;29;19914;-58
2022/06/11 07:51:26;;;;;;;;;;;21.60;99.90;;;;;;4922978;29;19929;-57
2022/06/11 07:53:52;;;;;;;;;;;21.30;99.90;;;;;;4925358;29;19926;-58
2022/06/11 07:56:18;;;;;;;;;;;21.20;99.90;;;;;;4920587;29;19967;-57
2022/06/11 07:58:44;;;;;;;;;;;21.50;99.90;;;;;;4924499;29;19918;-57
2022/06/11 08:01:09;;;;;;;;;;;21.90;99.90;;;;;;4921397;29;19911;-57
2022/06/11 08:03:37;;;;;;;;;;;21.80;99.90;;;;;;4922789;29;20217;-57
2022/06/11 08:06:03;;;;;;;;;;;21.80;99.90;;;;;;4924054;29;20418;-57
2022/06/11 08:08:29;;;;;;;;;;;21.70;99.90;;;;;;4927356;29;19921;-57
2022/06/11 08:10:55;;;;;;;;;;;21.40;99.90;;;;;;4924681;29;19911;-58
2022/06/11 08:13:20;;;;;;;;;;;21.50;99.90;;;;;;4923006;29;19968;-57
2022/06/11 08:15:47;;;;;;;;;;;21.40;99.90;;;;;;4927664;29;19910;-58
2022/06/11 08:18:13;;;;;;;;;;;21.50;99.90;;;;;;4922123;29;19911;-57
2022/06/11 08:20:39;;;;;;;;;;;21.40;99.90;;;;;;4922599;29;20286;-58
2022/06/11 08:23:05;;;;;;;;;;;21.30;99.90;;;;;;4924534;29;20006;-57
2022/06/11 08:25:30;;;;;;;;;;;21.40;99.90;;;;;;4926069;29;20009;-57
2022/06/11 08:27:56;;;;;;;;;;;21.50;99.90;;;;;;4925219;29;20006;-57
2022/06/11 08:30:23;;;;;;;;;;;21.70;99.90;;;;;;4927490;29;20355;-57
2022/06/11 08:32:49;;;;;;;;;;;22.30;99.90;;;;;;4926606;29;20001;-57
2022/06/11 08:35:15;;;;;;;;;;;22.30;99.90;;;;;;4922209;29;19911;-57
2022/06/11 08:37:41;;;;;;;;;;;22.60;99.90;;;;;;4918997;29;19978;-57
2022/06/11 08:40:10;;;;;;;;;;;22.30;99.90;;;;;;4922736;29;19910;-58
2022/06/11 08:42:38;;;;;;;;;;;22.80;99.90;;;;;;4921893;29;19910;-58
2022/06/11 08:45:05;;;;;;;;;;;23.50;99.90;;;;;;4921036;29;20367;-58
2022/06/11 08:47:36;;;;;;;;;;;24.30;99.90;;;;;;4922748;29;19938;-57
2022/06/11 08:50:02;;;;;;;;;;;24.50;99.90;;;;;;4916116;29;19911;-58
2022/06/11 08:52:29;;;;;;;;;;;25.00;99.90;;;;;;4914985;29;19931;-58
2022/06/11 08:54:54;;;;;;;;;;;25.50;99.90;;;;;;4914735;29;20307;-57
2022/06/11 08:57:20;;;;;;;;;;;25.40;99.90;;;;;;4914076;29;19911;-57
2022/06/11 09:00:05;;;;;;;;;;;25.10;99.90;;;;;;4916853;29;19917;-57
2022/06/11 09:02:36;;;;;;;;;;;24.30;99.90;;;;;;4921264;29;20314;-58
2022/06/11 09:05:20;;;;;;;;;;;23.20;99.90;;;;;;4924552;29;20472;-58
2022/06/11 09:07:50;;;;;;;;;;;22.90;99.90;;;;;;4921175;29;20009;-57
2022/06/11 09:10:27;;;;;;;;;;;23.80;99.90;;;;;;4923495;29;19917;-57
2022/06/11 09:13:13;;;;;;;;;;;24.70;99.90;;;;;;4920367;29;19982;-58
2022/06/11 09:15:39;;;;;;;;;;;25.60;99.90;;;;;;4930844;29;19921;-58
2022/06/11 09:18:23;;;;;;;;;;;25.20;99.90;;;;;;4922839;29;19919;-57
2022/06/11 09:21:07;;;;;;;;;;;25.40;99.90;;;;;;4916162;29;20394;-59
2022/06/11 09:23:38;;;;;;;;;;;25.90;99.90;;;;;;4913097;29;19926;-57
2022/06/11 09:26:04;;;;;;;;;;;24.80;99.90;;;;;;4922090;29;19918;-56
2022/06/11 09:28:44;;;;;;;;;;;24.80;99.90;;;;;;4927490;29;19966;-57
2022/06/11 09:31:11;;;;;;;;;;;24.40;99.90;;;;;;4927042;29;20446;-57
2022/06/11 09:34:09;;;;;;;;;;;24.70;99.90;;;;;;4919918;29;19910;-57
2022/06/11 09:36:39;;;;;;;;;;;25.80;99.90;;;;;;4882464;29;19921;-57
2022/06/11 09:39:30;;;;;;;;;;;26.00;99.90;;;;;;4922984;29;19912;-58
2022/06/11 09:42:03;;;;;;;;;;;24.30;99.90;;;;;;4919349;29;19911;-57
2022/06/11 09:44:38;;;;;;;;;;;24.90;99.90;;;;;;4913950;29;20384;-58
2022/06/11 09:47:18;;;;;;;;;;;25.40;99.90;;;;;;4912158;29;19911;-57
2022/06/11 09:49:56;;;;;;;;;;;24.90;99.90;;;;;;4910373;29;20498;-57
2022/06/11 09:52:22;;;;;;;;;;;25.80;99.90;;;;;;4918946;29;19927;-57
2022/06/11 09:54:58;;;;;;;;;;;25.80;99.90;;;;;;4925511;29;20222;-59
2022/06/11 09:57:32;;;;;;;;;;;26.80;99.90;;;;;;4924296;29;19914;-58
2022/06/11 10:00:30;;;;;;;;;;;27.10;99.00;;;;;;4925124;29;19911;-58
2022/06/11 10:05:45;;;;;;;;;;;27.30;98.70;;;;;;4920006;29;20283;-60
2022/06/11 10:08:25;;;;;;;;;;;27.10;98.80;;;;;;4922860;29;19919;-59
2022/06/11 10:10:52;;;;;;;;;;;26.70;98.80;;;;;;4928954;29;19911;-59
2022/06/11 10:13:25;;;;;;;;;;;26.50;99.90;;;;;;4924836;29;19911;-58
2022/06/11 10:15:51;;;;;;;;;;;26.10;99.60;;;;;;4927506;29;20116;-59
2022/06/11 10:18:23;;;;;;;;;;;26.40;99.30;;;;;;4923218;29;19911;-59
2022/06/11 10:20:51;;;;;;;;;;;26.80;98.60;;;;;;4919327;29;19915;-59
2022/06/11 10:23:40;;;;;;;;;;;26.80;98.30;;;;;;4922321;29;19958;-59
2022/06/11 10:26:11;;;;;;;;;;;26.90;98.10;;;;;;4922162;29;19937;-58
2022/06/11 10:28:40;;;;;;;;;;;26.20;98.00;;;;;;4920863;29;19910;-59
2022/06/11 10:31:09;;;;;;;;;;;25.90;99.00;;;;;;4922345;29;19914;-59
2022/06/11 10:33:47;;;;;;;;;;;25.60;99.40;;;;;;4923241;29;19910;-59
2022/06/11 10:36:36;;;;;;;;;;;26.20;98.80;;;;;;4918419;29;19910;-59
2022/06/11 10:39:09;;;;;;;;;;;27.80;98.40;;;;;;4922165;29;20001;-58
2022/06/11 10:41:44;;;;;;;;;;;27.40;96.60;;;;;;4922797;29;19997;-59
2022/06/11 10:44:12;;;;;;;;;;;27.00;97.60;;;;;;4927749;29;20287;-59
2022/06/11 10:46:38;;;;;;;;;;;27.00;98.40;;;;;;4922397;29;20005;-59
2022/06/11 10:49:10;;;;;;;;;;;28.20;96.30;;;;;;4930158;29;19906;-59
2022/06/11 10:51:37;;;;;;;;;;;27.30;96.80;;;;;;4921796;29;19941;-59
2022/06/11 10:54:09;;;;;;;;;;;27.90;96.80;;;;;;4926514;29;19914;-59
2022/06/11 10:56:37;;;;;;;;;;;28.80;96.30;;;;;;4923834;29;19911;-59
2022/06/11 10:59:06;;;;;;;;;;;27.00;96.50;;;;;;4926577;29;20005;-58
2022/06/11 11:01:34;;;;;;;;;;;26.40;97.60;;;;;;4929411;29;19911;-58
2022/06/11 11:04:18;;;;;;;;;;;26.30;98.20;;;;;;4930152;29;19910;-59
2022/06/11 11:06:43;;;;;;;;;;;26.90;97.40;;;;;;4921630;29;19922;-59
2022/06/11 11:09:22;;;;;;;;;;;26.20;98.60;;;;;;4925681;29;19911;-58
2022/06/11 11:11:52;;;;;;;;;;;25.90;99.20;;;;;;4921740;29;19918;-58
2022/06/11 11:14:39;;;;;;;;;;;26.50;99.40;;;;;;4923347;29;19957;-59
2022/06/11 11:17:06;;;;;;;;;;;26.70;98.20;;;;;;4923042;29;19938;-58
2022/06/11 11:19:33;;;;;;;;;;;27.50;98.00;;;;;;4921747;29;19957;-59
2022/06/11 11:22:05;;;;;;;;;;;28.60;95.80;;;;;;4920321;29;19919;-59
2022/06/11 11:24:33;;;;;;;;;;;28.20;96.80;;;;;;4924788;29;19954;-59
2022/06/11 11:27:02;;;;;;;;;;;28.40;95.50;;;;;;4919133;29;19914;-59
2022/06/11 11:29:50;;;;;;;;;;;26.90;95.90;;;;;;4926472;29;19938;-58
2022/06/11 11:32:45;;;;;;;;;;;26.40;97.00;;;;;;4920713;29;19907;-59
2022/06/11 11:35:16;;;;;;;;;;;26.80;97.50;;;;;;4909513;29;20001;-59
2022/06/11 11:37:42;;;;;;;;;;;27.70;96.30;;;;;;4916924;29;19922;-58
2022/06/11 11:40:26;;;;;;;;;;;26.50;96.50;;;;;;4926623;29;19910;-58
2022/06/11 11:43:11;;;;;;;;;;;28.40;95.30;;;;;;4922215;29;19918;-58
2022/06/11 11:45:42;;;;;;;;;;;28.40;95.40;;;;;;4920226;29;20331;-59
2022/06/11 11:48:11;;;;;;;;;;;28.40;94.60;;;;;;4920748;29;19981;-59
2022/06/11 11:50:39;;;;;;;;;;;28.40;95.10;;;;;;4922303;29;19954;-59
2022/06/11 11:53:10;;;;;;;;;;;28.20;95.40;;;;;;4919365;29;19925;-60
2022/06/11 11:55:36;;;;;;;;;;;28.90;95.00;;;;;;4906654;29;19918;-59
2022/06/11 11:58:06;;;;;;;;;;;29.80;93.70;;;;;;4924346;29;19938;-58
2022/06/11 12:00:41;;;;;;;;;;;29.20;93.50;;;;;;4919841;29;20624;-59
2022/06/11 12:03:21;;;;;;;;;;;29.80;93.20;;;;;;4920949;29;19993;-59
2022/06/11 12:05:49;;;;;;;;;;;28.90;94.20;;;;;;4923393;29;19914;-59
2022/06/11 12:08:23;;;;;;;;;;;28.40;94.40;;;;;;4920225;29;19919;-58
2022/06/11 12:10:50;;;;;;;;;;;28.00;94.40;;;;;;4925343;29;19914;-59
2022/06/11 12:13:30;;;;;;;;;;;27.40;95.30;;;;;;4924954;29;19915;-58
2022/06/11 12:15:57;;;;;;;;;;;26.30;95.90;;;;;;4923254;29;19922;-59
2022/06/11 12:18:26;;;;;;;;;;;26.00;96.90;;;;;;4921600;29;19910;-58
2022/06/11 12:20:54;;;;;;;;;;;26.80;96.30;;;;;;4920563;29;19915;-58
2022/06/11 12:23:30;;;;;;;;;;;28.10;95.10;;;;;;4925207;29;20347;-59
2022/06/11 12:26:07;;;;;;;;;;;29.90;94.30;;;;;;4923219;29;19918;-59
2022/06/11 12:28:35;;;;;;;;;;;29.50;92.90;;;;;;4921974;29;19966;-58
2022/06/11 12:31:00;;;;;;;;;;;29.00;93.00;;;;;;4921807;29;19911;-58
2022/06/11 12:33:27;;;;;;;;;;;29.00;93.00;;;;;;4920775;29;19959;-59
2022/06/11 12:36:14;;;;;;;;;;;29.40;92.70;;;;;;4922358;29;19919;-59
2022/06/11 12:38:49;;;;;;;;;;;30.70;91.60;;;;;;4921212;29;19921;-59
2022/06/11 12:41:22;;;;;;;;;;;30.90;91.30;;;;;;4920420;29;19915;-58
2022/06/11 12:44:00;;;;;;;;;;;30.40;91.10;;;;;;4922291;29;19911;-59
2022/06/11 12:46:33;;;;;;;;;;;29.70;91.60;;;;;;4922225;29;19915;-59
2022/06/11 12:48:59;;;;;;;;;;;;;;;;;;4924609;29;19930;-59
2022/06/11 12:51:36;;;;;;;;;;;29.40;91.70;;;;;;4920483;29;19926;-58
2022/06/11 12:54:37;;;;;;;;;;;29.00;92.40;;;;;;4920696;29;20267;-59
2022/06/11 12:57:02;;;;;;;;;;;29.50;92.40;;;;;;4867224;29;20010;-58
2022/06/11 12:59:43;;;;;;;;;;;29.90;91.40;;;;;;4910950;29;20032;-58
2022/06/11 13:02:22;;;;;;;;;;;29.50;91.50;;;;;;4923816;29;19911;-58
2022/06/11 13:04:48;;;;;;;;;;;29.80;91.80;;;;;;4920848;29;20014;-59
2022/06/11 13:07:32;;;;;;;;;;;30.70;91.60;;;;;;4924074;29;19994;-58
2022/06/11 13:10:12;;;;;;;;;;;30.30;90.80;;;;;;4922739;29;19950;-59
2022/06/11 13:12:57;;;;;;;;;;;31.10;90.10;;;;;;4925163;29;19925;-58
2022/06/11 13:15:35;;;;;;;;;;;30.70;90.10;;;;;;4927955;29;19919;-59
2022/06/11 13:18:04;;;;;;;;;;;28.80;90.90;;;;;;4920902;29;19975;-58
2022/06/11 13:20:47;;;;;;;;;;;29.30;91.50;;;;;;4926469;29;19918;-58
2022/06/11 13:23:17;;;;;;;;;;;29.80;90.50;;;;;;4923566;29;20418;-59
2022/06/11 13:25:46;;;;;;;;;;;30.10;90.00;;;;;;4923061;29;19925;-59
2022/06/11 13:28:17;;;;;;;;;;;30.10;90.60;;;;;;4924427;29;19911;-59
2022/06/11 13:31:01;;;;;;;;;;;29.70;91.10;;;;;;4919972;29;19911;-59
2022/06/11 13:33:39;;;;;;;;;;;30.00;91.00;;;;;;4921559;29;19915;-59
2022/06/11 13:36:23;;;;;;;;;;;30.60;90.20;;;;;;4924163;29;19958;-58
2022/06/11 13:38:54;;;;;;;;;;;31.30;88.80;;;;;;4916756;29;19964;-58
2022/06/11 13:41:20;;;;;;;;;;;31.10;87.90;;;;;;4924077;29;19914;-58
2022/06/11 13:43:45;;;;;;;;;;;29.90;89.20;;;;;;4915967;29;20299;-58
2022/06/11 13:46:16;;;;;;;;;;;30.50;88.80;;;;;;4918256;29;19963;-58
2022/06/11 13:48:42;;;;;;;;;;;30.60;88.70;;;;;;4916295;29;19911;-58
2022/06/11 13:51:14;;;;;;;;;;;29.60;90.00;;;;;;4910376;29;19923;-58
2022/06/11 13:56:27;;;;;;;;;;;31.00;87.90;;;;;;4921517;29;20477;-58
2022/06/11 13:59:11;;;;;;;;;;;31.70;86.40;;;;;;4919062;29;20351;-59
2022/06/11 14:01:49;;;;;;;;;;;33.00;84.60;;;;;;4922214;29;19918;-59
2022/06/11 14:04:20;;;;;;;;;;;32.70;82.90;;;;;;4920404;29;20354;-59
2022/06/11 14:06:46;;;;;;;;;;;33.40;82.90;;;;;;4924883;29;19948;-59
2022/06/11 14:10:20;;;;;;;;;;;34.00;81.80;;;;;;4918717;29;19911;-58
2022/06/11 14:11:57;;;;;;;;;;;32.70;81.90;;;;;;4922406;29;20390;-59
2022/06/11 14:14:37;;;;;;;;;;;32.00;82.70;;;;;;4924529;29;19910;-58
2022/06/11 14:17:22;;;;;;;;;;;32.90;82.00;;;;;;4925498;29;19911;-58
2022/06/11 14:19:48;;;;;;;;;;;33.50;80.20;;;;;;4919240;29;19919;-58
2022/06/11 14:22:27;;;;;;;;;;;32.60;81.00;;;;;;4921318;29;20509;-58
2022/06/11 14:24:54;;;;;;;;;;;30.90;81.40;;;;;;4917605;29;19940;-59
2022/06/11 14:27:28;;;;;;;;;;;31.10;83.10;;;;;;4922750;29;19915;-59
2022/06/11 14:30:01;;;;;;;;;;;32.70;81.90;;;;;;4921153;29;20392;-59
2022/06/11 14:32:28;;;;;;;;;;;33.40;79.20;;;;;;4922677;29;20268;-58
2022/06/11 14:34:58;;;;;;;;;;;32.70;79.80;;;;;;4920811;29;20025;-58
2022/06/11 14:37:25;;;;;;;;;;;33.20;78.70;;;;;;4923128;29;19978;-58
2022/06/11 14:40:06;;;;;;;;;;;33.50;77.40;;;;;;4916193;29;19911;-59
2022/06/11 14:42:50;;;;;;;;;;;32.90;77.90;;;;;;4917992;29;19953;-59
2022/06/11 14:45:34;;;;;;;;;;;31.60;79.40;;;;;;4919980;29;20018;-59
2022/06/11 14:48:00;;;;;;;;;;;30.90;83.00;;;;;;4919183;29;20451;-60